createdAt,value
2017-12-05T00:01:34.483Z,1.90
2017-12-05T00:04:03.957Z,2.20
2017-12-05T00:06:33.480Z,1.80
2017-12-05T00:09:02.978Z,2.12
2017-12-05T00:11:32.455Z,2.33
2017-12-05T00:14:01.978Z,2.53
2017-12-05T00:16:31.481Z,1.80
2017-12-05T00:19:01.018Z,2.00
2017-12-05T00:21:30.495Z,1.80
2017-12-05T00:24:00.009Z,1.92
2017-12-05T00:26:29.504Z,2.20
2017-12-05T00:28:59.019Z,2.00
2017-12-05T00:31:28.511Z,2.05
2017-12-05T00:33:58.002Z,2.20
2017-12-05T00:36:27.554Z,1.90
2017-12-05T00:38:57.080Z,2.35
2017-12-05T00:41:26.725Z,2.10
2017-12-05T00:43:56.274Z,2.15
2017-12-05T00:46:25.742Z,1.92
2017-12-05T00:48:55.262Z,1.67
2017-12-05T00:51:24.816Z,1.65
2017-12-05T00:53:54.326Z,2.10
2017-12-05T00:56:23.851Z,2.00
2017-12-05T00:58:53.419Z,1.60
2017-12-05T01:01:22.934Z,1.70
2017-12-05T01:03:52.405Z,1.50
2017-12-05T01:06:21.914Z,1.48
2017-12-05T01:08:51.452Z,1.60
2017-12-05T01:11:20.987Z,1.83
2017-12-05T01:13:50.482Z,1.85
2017-12-05T01:16:19.972Z,1.73
2017-12-05T01:18:49.472Z,1.48
2017-12-05T01:21:18.952Z,1.70
2017-12-05T01:23:48.459Z,1.45
2017-12-05T01:26:17.958Z,1.60
2017-12-05T01:28:47.472Z,1.60
2017-12-05T01:31:17.009Z,2.12
2017-12-05T01:33:46.490Z,1.50
2017-12-05T01:36:16.310Z,1.90
2017-12-05T01:38:45.766Z,2.10
2017-12-05T01:41:15.414Z,1.77
2017-12-05T01:43:44.880Z,1.60
2017-12-05T01:46:14.419Z,2.03
2017-12-05T01:48:43.928Z,1.92
2017-12-05T01:51:13.476Z,1.70
2017-12-05T01:53:42.888Z,1.60
2017-12-05T01:56:12.411Z,2.17
2017-12-05T01:58:41.909Z,1.37
2017-12-05T02:01:11.381Z,1.60
2017-12-05T02:03:40.934Z,1.60
2017-12-05T02:06:10.388Z,1.40
2017-12-05T02:08:39.924Z,1.55
2017-12-05T02:11:09.380Z,1.80
2017-12-05T02:13:38.910Z,1.40
2017-12-05T02:16:08.379Z,1.73
2017-12-05T02:18:37.897Z,1.60
2017-12-05T02:21:07.366Z,1.37
2017-12-05T02:23:36.875Z,1.55
2017-12-05T02:26:06.614Z,1.35
2017-12-05T02:28:36.130Z,1.40
2017-12-05T02:31:05.641Z,1.40
2017-12-05T02:33:35.172Z,1.55
2017-12-05T02:36:04.684Z,1.52
2017-12-05T02:38:34.210Z,1.40
2017-12-05T02:41:09.705Z,1.77
2017-12-05T02:43:39.283Z,1.48
2017-12-05T02:46:08.780Z,1.30
2017-12-05T02:48:38.260Z,1.80
2017-12-05T02:51:07.716Z,1.50
2017-12-05T02:53:37.217Z,1.67
2017-12-05T02:56:06.784Z,1.58
2017-12-05T02:58:36.271Z,1.62
2017-12-05T03:01:05.759Z,1.30
2017-12-05T03:03:35.234Z,1.50
2017-12-05T03:06:04.803Z,1.65
2017-12-05T03:08:34.324Z,1.90
2017-12-05T03:11:03.786Z,1.40
2017-12-05T03:13:33.302Z,1.50
2017-12-05T03:16:02.807Z,1.25
2017-12-05T03:18:32.291Z,1.50
2017-12-05T03:21:01.800Z,1.00
2017-12-05T03:23:31.322Z,1.40
2017-12-05T03:26:00.817Z,1.30
2017-12-05T03:28:30.333Z,1.95
2017-12-05T03:30:59.830Z,1.65
2017-12-05T03:33:29.316Z,1.55
2017-12-05T03:35:58.854Z,1.60
2017-12-05T03:38:28.516Z,1.12
2017-12-05T03:40:58.012Z,1.30
2017-12-05T03:43:27.551Z,1.20
2017-12-05T03:45:57.012Z,1.70
2017-12-05T03:48:26.544Z,1.12
2017-12-05T03:50:56.042Z,1.40
2017-12-05T03:53:25.551Z,1.60
2017-12-05T03:55:55.057Z,1.40
2017-12-05T03:58:24.546Z,1.58
2017-12-05T04:00:54.114Z,1.20
2017-12-05T04:03:23.629Z,1.30
2017-12-05T04:05:53.140Z,1.20
2017-12-05T04:08:22.615Z,1.15
2017-12-05T04:10:52.156Z,1.00
2017-12-05T04:13:21.635Z,1.50
2017-12-05T04:15:51.189Z,1.40
2017-12-05T04:18:20.678Z,1.15
2017-12-05T04:20:50.205Z,1.10
2017-12-05T04:23:19.683Z,1.37
2017-12-05T04:25:49.189Z,1.23
2017-12-05T04:28:18.776Z,1.20
2017-12-05T04:30:48.281Z,1.10
2017-12-05T04:33:17.844Z,1.60
2017-12-05T04:35:47.316Z,1.37
2017-12-05T04:38:16.807Z,1.40
2017-12-05T04:40:46.986Z,1.20
2017-12-05T04:43:16.500Z,1.40
2017-12-05T04:45:45.968Z,1.10
2017-12-05T04:48:15.488Z,1.20
2017-12-05T04:50:44.950Z,1.17
2017-12-05T04:53:14.481Z,1.10
2017-12-05T04:55:44.000Z,1.17
2017-12-05T04:58:13.486Z,1.58
2017-12-05T05:00:42.969Z,1.25
2017-12-05T05:03:12.489Z,1.00
2017-12-05T05:05:41.966Z,1.20
2017-12-05T05:08:11.483Z,1.25
2017-12-05T05:10:40.996Z,1.30
2017-12-05T05:13:10.463Z,1.10
2017-12-05T05:15:39.964Z,1.15
2017-12-05T05:18:09.433Z,1.30
2017-12-05T05:20:38.931Z,1.20
2017-12-05T05:23:08.447Z,1.25
2017-12-05T05:25:37.945Z,1.10
2017-12-05T05:28:07.413Z,1.20
2017-12-05T05:30:36.984Z,1.17
2017-12-05T05:33:06.457Z,1.10
2017-12-05T05:35:36.277Z,1.10
2017-12-05T05:38:05.768Z,1.20
2017-12-05T05:40:35.268Z,1.10
2017-12-05T05:43:04.762Z,1.15
2017-12-05T05:45:34.343Z,1.00
2017-12-05T05:48:03.829Z,1.10
2017-12-05T05:50:33.347Z,1.15
2017-12-05T05:53:03.083Z,1.20
2017-12-05T05:55:32.596Z,1.30
2017-12-05T05:58:02.116Z,1.00
2017-12-05T06:00:31.588Z,1.00
2017-12-05T06:03:01.103Z,1.40
2017-12-05T06:05:30.620Z,1.20
2017-12-05T06:08:00.184Z,1.30
2017-12-05T06:10:29.665Z,0.80
2017-12-05T06:12:59.212Z,2.20
2017-12-05T06:15:28.673Z,1.30
2017-12-05T06:17:58.183Z,1.75
2017-12-05T06:20:27.784Z,1.30
2017-12-05T06:22:57.318Z,1.62
2017-12-05T06:25:26.831Z,1.60
2017-12-05T06:27:56.345Z,1.10
2017-12-05T06:30:25.807Z,1.70
2017-12-05T06:32:55.350Z,1.40
2017-12-05T06:35:24.837Z,1.27
2017-12-05T06:37:54.463Z,1.50
2017-12-05T06:40:23.945Z,1.30
2017-12-05T06:42:53.526Z,2.00
2017-12-05T06:45:22.933Z,2.65
2017-12-05T06:47:52.415Z,2.10
2017-12-05T06:50:21.939Z,2.35
2017-12-05T06:52:51.439Z,2.28
2017-12-05T06:55:20.970Z,2.08
2017-12-05T06:57:50.525Z,2.20
2017-12-05T07:00:20.033Z,2.35
2017-12-05T07:02:49.632Z,2.10
2017-12-05T07:05:19.144Z,2.30
2017-12-05T07:07:48.615Z,1.80
2017-12-05T07:10:18.100Z,1.98
2017-12-05T07:12:47.650Z,2.75
2017-12-05T07:15:17.198Z,2.15
2017-12-05T07:17:46.673Z,2.20
2017-12-05T07:20:16.172Z,1.90
2017-12-05T07:22:45.651Z,1.90
2017-12-05T07:25:15.182Z,1.70
2017-12-05T07:27:44.816Z,2.10
2017-12-05T07:30:14.323Z,1.70
2017-12-05T07:32:43.852Z,1.80
2017-12-05T07:35:13.330Z,1.90
2017-12-05T07:37:42.891Z,1.65
2017-12-05T07:40:12.345Z,1.73
2017-12-05T07:42:41.877Z,1.80
2017-12-05T07:45:11.383Z,1.95
2017-12-05T07:47:40.934Z,1.80
2017-12-05T07:50:10.435Z,2.00
2017-12-05T07:52:39.901Z,2.28
2017-12-05T07:55:09.446Z,2.05
2017-12-05T07:57:38.934Z,1.45
2017-12-05T08:00:08.462Z,2.00
2017-12-05T08:02:37.951Z,1.83
2017-12-05T08:05:07.465Z,1.75
2017-12-05T08:07:36.937Z,1.55
2017-12-05T08:10:06.444Z,1.70
2017-12-05T08:12:35.923Z,1.70
2017-12-05T08:15:05.456Z,1.73
2017-12-05T08:17:34.928Z,1.70
2017-12-05T08:20:04.452Z,1.30
2017-12-05T08:22:33.902Z,1.75
2017-12-05T08:25:03.428Z,1.80
2017-12-05T08:27:32.943Z,1.70
2017-12-05T08:30:02.456Z,1.60
2017-12-05T08:32:31.985Z,1.85
2017-12-05T08:35:01.492Z,1.80
2017-12-05T08:37:31.098Z,1.55
2017-12-05T08:40:00.574Z,1.50
2017-12-05T08:42:30.059Z,1.85
2017-12-05T08:44:59.522Z,1.60
2017-12-05T08:47:29.077Z,1.40
2017-12-05T08:49:58.562Z,1.50
2017-12-05T08:52:28.062Z,1.50
2017-12-05T08:54:57.565Z,1.67
2017-12-05T08:57:27.086Z,1.70
2017-12-05T08:59:56.646Z,1.75
2017-12-05T09:02:26.146Z,1.83
2017-12-05T09:04:55.653Z,1.60
2017-12-05T09:07:25.192Z,1.37
2017-12-05T09:09:54.654Z,1.20
2017-12-05T09:12:24.170Z,1.40
2017-12-05T09:14:53.844Z,1.42
2017-12-05T09:17:23.343Z,1.20
2017-12-05T09:19:52.852Z,1.60
2017-12-05T09:22:22.340Z,1.70
2017-12-05T09:24:51.909Z,1.25
2017-12-05T09:27:21.395Z,1.40
2017-12-05T09:29:50.900Z,1.33
2017-12-05T09:32:20.434Z,1.70
2017-12-05T09:34:49.923Z,1.48
2017-12-05T09:37:19.441Z,1.37
2017-12-05T09:39:48.967Z,1.52
2017-12-05T09:42:18.450Z,1.83
2017-12-05T09:44:48.001Z,1.62
2017-12-05T09:47:17.499Z,1.50
2017-12-05T09:49:46.973Z,1.55
2017-12-05T09:52:16.532Z,1.40
2017-12-05T09:54:46.019Z,1.30
2017-12-05T09:57:15.622Z,1.52
2017-12-05T09:59:45.089Z,1.25
2017-12-05T10:02:14.592Z,1.48
2017-12-05T10:04:44.170Z,1.30
2017-12-05T10:07:13.731Z,1.40
2017-12-05T10:09:43.220Z,1.50
2017-12-05T10:12:12.733Z,1.60
2017-12-05T10:14:42.255Z,1.50
2017-12-05T10:17:11.775Z,1.35
2017-12-05T10:19:41.315Z,1.60
2017-12-05T10:22:10.781Z,1.60
2017-12-05T10:24:40.288Z,1.70
2017-12-05T10:27:09.773Z,1.37
2017-12-05T10:29:39.380Z,1.30
2017-12-05T10:32:08.893Z,1.35
2017-12-05T10:34:38.400Z,1.60
2017-12-05T10:37:07.877Z,1.45
2017-12-05T10:39:37.404Z,1.60
2017-12-05T10:42:06.915Z,1.12
2017-12-05T10:44:36.419Z,1.30
2017-12-05T10:47:05.977Z,1.08
2017-12-05T10:49:35.464Z,1.40
2017-12-05T10:52:04.986Z,1.25
2017-12-05T10:54:34.454Z,1.60
2017-12-05T10:57:03.956Z,1.25
2017-12-05T10:59:33.447Z,1.42
2017-12-05T11:02:02.941Z,1.35
2017-12-05T11:04:32.468Z,1.30
2017-12-05T11:07:01.969Z,1.40
2017-12-05T11:09:31.429Z,1.62
2017-12-05T11:12:00.937Z,1.25
2017-12-05T11:14:30.470Z,1.30
2017-12-05T11:16:59.963Z,1.37
2017-12-05T11:19:29.450Z,1.35
2017-12-05T11:21:58.956Z,1.25
2017-12-05T11:24:28.413Z,1.60
2017-12-05T11:26:57.960Z,1.55
2017-12-05T11:29:27.481Z,1.17
2017-12-05T11:31:57.111Z,1.40
2017-12-05T11:34:26.635Z,1.25
2017-12-05T11:36:56.126Z,1.30
2017-12-05T11:39:25.677Z,1.30
2017-12-05T11:41:55.148Z,1.25
2017-12-05T11:44:24.749Z,1.20
2017-12-05T11:46:54.190Z,1.40
2017-12-05T11:49:23.739Z,1.10
2017-12-05T11:51:53.226Z,1.30
2017-12-05T11:54:22.719Z,1.25
2017-12-05T11:56:52.250Z,1.30
2017-12-05T11:59:21.814Z,1.50
2017-12-05T12:01:51.363Z,1.40
2017-12-05T12:04:20.827Z,1.20
2017-12-05T12:06:50.351Z,1.35
2017-12-05T12:09:19.946Z,1.27
2017-12-05T12:11:49.450Z,1.00
2017-12-05T12:14:19.336Z,1.20
2017-12-05T12:16:48.854Z,1.30
2017-12-05T12:19:18.361Z,1.20
2017-12-05T12:21:47.881Z,1.10
2017-12-05T12:24:17.375Z,1.60
2017-12-05T12:26:46.857Z,1.50
2017-12-05T12:29:16.421Z,1.33
2017-12-05T12:31:45.904Z,1.30
2017-12-05T12:34:15.413Z,0.95
2017-12-05T12:36:44.932Z,1.30
2017-12-05T12:39:14.415Z,1.20
2017-12-05T12:41:43.920Z,1.48
2017-12-05T12:44:14.396Z,1.45
2017-12-05T12:46:43.888Z,1.35
2017-12-05T12:49:13.462Z,1.02
2017-12-05T12:51:43.619Z,1.10
2017-12-05T12:54:13.095Z,1.25
2017-12-05T12:56:42.582Z,1.20
2017-12-05T12:59:12.063Z,1.10
2017-12-05T13:01:41.678Z,1.30
2017-12-05T13:04:11.119Z,1.08
2017-12-05T13:06:40.775Z,1.20
2017-12-05T13:09:10.246Z,1.30
2017-12-05T13:11:39.756Z,1.20
2017-12-05T13:14:09.296Z,1.12
2017-12-05T13:16:38.965Z,1.05
2017-12-05T13:19:08.468Z,1.10
2017-12-05T13:21:37.934Z,0.90
2017-12-05T13:24:07.427Z,0.98
2017-12-05T13:26:36.931Z,1.10
2017-12-05T13:29:06.413Z,1.00
2017-12-05T13:31:35.954Z,1.10
2017-12-05T13:34:05.475Z,1.00
2017-12-05T13:36:34.974Z,1.00
2017-12-05T13:39:04.436Z,0.90
2017-12-05T13:41:33.963Z,1.00
2017-12-05T13:44:03.456Z,1.00
2017-12-05T13:46:32.976Z,1.08
2017-12-05T13:49:02.461Z,1.10
2017-12-05T13:51:31.975Z,1.05
2017-12-05T13:54:01.524Z,0.90
2017-12-05T13:56:31.056Z,1.33
2017-12-05T13:59:00.545Z,1.12
2017-12-05T14:01:30.121Z,1.05
2017-12-05T14:03:59.707Z,1.12
2017-12-05T14:06:29.407Z,1.15
2017-12-05T14:08:58.894Z,1.20
2017-12-05T14:11:28.381Z,1.10
2017-12-05T14:13:57.859Z,1.08
2017-12-05T14:16:27.439Z,1.15
2017-12-05T14:18:56.934Z,1.10
2017-12-05T14:21:26.402Z,1.42
2017-12-05T14:23:55.994Z,1.00
2017-12-05T14:26:25.481Z,1.00
2017-12-05T14:28:55.137Z,0.90
2017-12-05T14:31:24.624Z,1.05
2017-12-05T14:33:54.166Z,1.10
2017-12-05T14:36:23.782Z,1.10
2017-12-05T14:38:53.338Z,1.20
2017-12-05T14:41:22.849Z,1.00
2017-12-05T14:43:52.381Z,1.20
2017-12-05T14:46:21.896Z,1.10
2017-12-05T14:48:51.583Z,1.00
2017-12-05T14:51:21.104Z,1.30
2017-12-05T14:53:50.642Z,1.10
2017-12-05T14:56:20.158Z,1.10
2017-12-05T14:58:49.642Z,1.40
2017-12-05T15:01:19.178Z,1.33
2017-12-05T15:03:48.662Z,1.08
2017-12-05T15:06:18.186Z,0.90
2017-12-05T15:08:47.685Z,1.10
2017-12-05T15:11:17.168Z,1.02
2017-12-05T15:13:46.742Z,1.23
2017-12-05T15:16:16.214Z,0.98
2017-12-05T15:18:45.865Z,1.02
2017-12-05T15:21:15.343Z,1.30
2017-12-05T15:23:44.857Z,1.25
2017-12-05T15:26:14.371Z,1.00
2017-12-05T15:28:44.061Z,1.25
2017-12-05T15:31:13.559Z,1.00
2017-12-05T15:33:43.052Z,1.10
2017-12-05T15:36:12.555Z,1.20
2017-12-05T15:38:42.091Z,1.00
2017-12-05T15:41:11.621Z,0.90
2017-12-05T15:43:41.102Z,1.10
2017-12-05T15:46:10.607Z,1.30
2017-12-05T15:48:40.132Z,1.23
2017-12-05T15:51:09.656Z,1.25
2017-12-05T15:53:39.530Z,1.10
2017-12-05T15:56:08.997Z,1.20
2017-12-05T15:58:38.519Z,1.20
2017-12-05T16:01:08.019Z,1.17
2017-12-05T16:03:37.547Z,1.35
2017-12-05T16:06:07.093Z,1.25
2017-12-05T16:08:36.555Z,1.45
2017-12-05T16:11:06.101Z,1.20
2017-12-05T16:13:35.598Z,1.08
2017-12-05T16:16:05.308Z,1.35
2017-12-05T16:18:34.798Z,1.25
2017-12-05T16:21:04.331Z,1.20
2017-12-05T16:23:33.835Z,1.42
2017-12-05T16:26:03.359Z,1.40
2017-12-05T16:28:32.815Z,1.48
2017-12-05T16:31:02.340Z,1.30
2017-12-05T16:33:31.812Z,1.25
2017-12-05T16:36:01.306Z,1.35
2017-12-05T16:38:30.841Z,1.40
2017-12-05T16:41:00.360Z,2.17
2017-12-05T16:43:30.047Z,2.00
2017-12-05T16:45:59.586Z,1.60
2017-12-05T16:48:29.074Z,1.50
2017-12-05T16:50:58.596Z,1.42
2017-12-05T16:53:28.078Z,1.70
2017-12-05T16:55:58.223Z,1.60
2017-12-05T16:58:27.724Z,1.60
2017-12-05T17:00:57.265Z,1.50
2017-12-05T17:03:26.750Z,1.58
2017-12-05T17:05:56.277Z,2.62
2017-12-05T17:08:25.762Z,2.30
2017-12-05T17:10:55.294Z,1.95
2017-12-05T17:13:24.844Z,2.35
2017-12-05T17:15:54.334Z,2.00
2017-12-05T17:18:23.841Z,2.00
2017-12-05T17:20:53.392Z,2.20
2017-12-05T17:23:22.949Z,2.10
2017-12-05T17:25:52.419Z,2.25
2017-12-05T17:28:21.940Z,2.22
2017-12-05T17:30:51.625Z,2.20
2017-12-05T17:33:21.126Z,2.05
2017-12-05T17:35:50.652Z,2.28
2017-12-05T17:38:20.142Z,2.33
2017-12-05T17:40:49.670Z,2.08
2017-12-05T17:43:19.185Z,1.85
2017-12-05T17:45:48.836Z,2.20
2017-12-05T17:48:18.323Z,2.37
2017-12-05T17:50:47.854Z,2.22
2017-12-05T17:53:17.410Z,2.10
2017-12-05T17:55:46.897Z,2.10
2017-12-05T17:58:16.500Z,2.20
2017-12-05T18:00:46.679Z,1.85
2017-12-05T18:03:16.201Z,2.20
2017-12-05T18:05:45.720Z,2.47
2017-12-05T18:08:15.272Z,2.08
2017-12-05T18:10:44.789Z,1.98
2017-12-05T18:13:14.334Z,2.22
2017-12-05T18:15:43.838Z,2.17
2017-12-05T18:18:13.380Z,2.65
2017-12-05T18:20:42.910Z,2.10
2017-12-05T18:23:12.442Z,2.10
2017-12-05T18:25:42.052Z,2.60
2017-12-05T18:28:11.562Z,2.30
2017-12-05T18:30:41.102Z,1.95
2017-12-05T18:33:10.653Z,2.10
2017-12-05T18:35:40.157Z,2.15
2017-12-05T18:38:09.674Z,2.30
2017-12-05T18:40:39.172Z,2.08
2017-12-05T18:43:08.727Z,2.60
2017-12-05T18:45:38.280Z,2.42
2017-12-05T18:48:07.783Z,2.35
2017-12-05T18:50:37.399Z,2.50
2017-12-05T18:53:06.938Z,1.87
2017-12-05T18:55:36.497Z,1.77
2017-12-05T18:58:05.996Z,1.98
2017-12-05T19:00:35.525Z,2.15
2017-12-05T19:03:05.045Z,2.42
2017-12-05T19:05:34.580Z,2.10
2017-12-05T19:08:04.153Z,2.00
2017-12-05T19:10:33.684Z,2.53
2017-12-05T19:13:03.254Z,2.35
2017-12-05T19:15:32.815Z,2.42
2017-12-05T19:18:02.387Z,2.37
2017-12-05T19:20:31.891Z,2.62
2017-12-05T19:23:02.339Z,2.50
2017-12-05T19:25:31.984Z,2.37
2017-12-05T19:28:01.615Z,2.35
2017-12-05T19:30:31.206Z,2.20
2017-12-05T19:33:00.718Z,2.15
2017-12-05T19:35:30.282Z,2.55
2017-12-05T19:38:00.156Z,1.70
2017-12-05T19:40:29.704Z,2.28
2017-12-05T19:42:59.327Z,2.10
2017-12-05T19:45:28.842Z,2.47
2017-12-05T19:47:58.414Z,2.40
2017-12-05T19:50:27.952Z,2.10
2017-12-05T19:52:57.650Z,2.62
2017-12-05T19:55:27.203Z,1.70
2017-12-05T19:57:56.802Z,2.05
2017-12-05T20:00:26.680Z,2.50
2017-12-05T20:02:56.217Z,2.20
2017-12-05T20:05:25.783Z,2.20
2017-12-05T20:07:55.344Z,2.62
2017-12-05T20:10:24.881Z,2.35
2017-12-05T20:12:55.104Z,2.53
2017-12-05T20:15:24.621Z,2.28
2017-12-05T20:17:54.355Z,2.40
2017-12-05T20:20:24.248Z,2.60
2017-12-05T20:22:53.840Z,2.10
2017-12-05T20:25:23.409Z,2.12
2017-12-05T20:27:52.944Z,2.30
2017-12-05T20:30:22.499Z,2.35
2017-12-05T20:32:52.059Z,2.53
2017-12-05T20:35:21.609Z,2.30
2017-12-05T20:37:51.994Z,1.90
2017-12-05T20:40:21.648Z,2.45
2017-12-05T20:42:51.956Z,2.00
2017-12-05T20:45:21.554Z,2.17
2017-12-05T20:47:51.058Z,2.30
2017-12-05T20:50:20.577Z,2.85
2017-12-05T20:52:50.066Z,2.47
2017-12-05T20:55:19.632Z,2.22
2017-12-05T20:57:49.504Z,2.12
2017-12-05T21:00:19.101Z,2.37
2017-12-05T21:02:48.689Z,2.30
2017-12-05T21:05:18.303Z,2.45
2017-12-05T21:07:47.792Z,2.60
2017-12-05T21:10:17.337Z,1.92
2017-12-05T21:12:46.873Z,2.20
2017-12-05T21:15:16.490Z,1.90
2017-12-05T21:17:46.060Z,1.85
2017-12-05T21:20:15.731Z,2.30
2017-12-05T21:22:45.351Z,2.25
2017-12-05T21:25:14.899Z,1.98
2017-12-05T21:27:44.576Z,2.22
2017-12-05T21:30:14.125Z,2.15
2017-12-05T21:32:43.770Z,2.15
2017-12-05T21:35:13.773Z,1.75
2017-12-05T21:37:43.344Z,2.00
2017-12-05T21:40:12.824Z,2.05
2017-12-05T21:42:42.402Z,2.30
2017-12-05T21:45:11.869Z,2.25
2017-12-05T21:47:41.422Z,1.98
2017-12-05T21:50:10.980Z,2.20
2017-12-05T21:52:40.485Z,2.08
2017-12-05T21:55:10.019Z,1.90
2017-12-05T21:57:39.503Z,2.10
2017-12-05T22:00:09.054Z,1.70
2017-12-05T22:02:38.554Z,2.40
2017-12-05T22:05:08.071Z,1.92
2017-12-05T22:07:37.575Z,2.53
2017-12-05T22:10:07.075Z,2.20
2017-12-05T22:12:36.571Z,2.47
2017-12-05T22:15:06.073Z,2.00
2017-12-05T22:17:35.575Z,1.90
2017-12-05T22:20:05.097Z,1.98
2017-12-05T22:22:34.679Z,2.20
2017-12-05T22:25:04.212Z,1.90
2017-12-05T22:27:33.816Z,1.90
2017-12-05T22:30:03.427Z,1.95
2017-12-05T22:32:32.930Z,1.60
2017-12-05T22:35:02.415Z,1.80
2017-12-05T22:37:31.960Z,1.85
2017-12-05T22:40:01.468Z,2.25
2017-12-05T22:42:30.998Z,2.00
2017-12-05T22:45:00.546Z,1.85
2017-12-05T22:47:30.107Z,2.03
2017-12-05T22:49:59.568Z,1.55
2017-12-05T22:52:29.112Z,1.92
2017-12-05T22:54:58.599Z,2.58
2017-12-05T22:57:28.325Z,2.15
2017-12-05T22:59:57.840Z,2.00
2017-12-05T23:02:27.373Z,1.98
2017-12-05T23:04:56.862Z,2.00
2017-12-05T23:07:26.353Z,1.60
2017-12-05T23:09:55.963Z,1.75
2017-12-05T23:12:25.477Z,1.80
2017-12-05T23:14:55.007Z,1.80
2017-12-05T23:17:24.555Z,1.90
2017-12-05T23:19:54.198Z,2.10
2017-12-05T23:22:23.732Z,3.10
2017-12-05T23:24:53.209Z,1.87
2017-12-05T23:27:22.782Z,2.12
2017-12-05T23:29:52.374Z,1.98
2017-12-05T23:32:22.023Z,1.80
2017-12-05T23:34:51.590Z,1.70
2017-12-05T23:37:21.107Z,1.65
2017-12-05T23:39:50.685Z,1.65
2017-12-05T23:42:20.183Z,1.70
2017-12-05T23:44:49.723Z,1.60
2017-12-05T23:47:19.234Z,1.50
2017-12-05T23:49:48.754Z,1.62
2017-12-05T23:52:18.291Z,1.50
2017-12-05T23:54:47.788Z,1.60
2017-12-05T23:57:17.307Z,1.60
2017-12-05T23:59:46.900Z,1.85
